sensor_id;sensor_type;location;lat;lon;timestamp;pressure;altitude;pressure_sealevel;temperature;humidity
6349;BME280;3207;42.648;23.406;2023-04-06T00:00:14;100335.72;;;6.41;nan
6349;BME280;3207;42.648;23.406;2023-04-06T00:02:41;100333.13;;;6.41;nan
6349;BME280;3207;42.648;23.406;2023-04-06T00:05:08;100332.69;;;6.33;nan
6349;BME280;3207;42.648;23.406;2023-04-06T00:07:35;100329.75;;;6.39;nan
6349;BME280;3207;42.648;23.406;2023-04-06T00:10:05;100328.03;;;6.22;nan
6349;BME280;3207;42.648;23.406;2023-04-06T00:12:32;100341.00;;;6.22;nan
6349;BME280;3207;42.648;23.406;2023-04-06T00:14:59;100336.16;;;6.15;nan
6349;BME280;3207;42.648;23.406;2023-04-06T00:17:26;100323.63;;;6.06;nan
6349;BME280;3207;42.648;23.406;2023-04-06T00:19:53;100338.84;;;6.31;nan
6349;BME280;3207;42.648;23.406;2023-04-06T00:22:20;100338.03;;;6.13;nan
6349;BME280;3207;42.648;23.406;2023-04-06T00:24:47;100333.56;;;6.15;nan
6349;BME280;3207;42.648;23.406;2023-04-06T00:27:15;100336.69;;;6.04;nan
6349;BME280;3207;42.648;23.406;2023-04-06T00:29:43;100346.09;;;6.07;nan
6349;BME280;3207;42.648;23.406;2023-04-06T00:32:10;100333.41;;;6.18;nan
6349;BME280;3207;42.648;23.406;2023-04-06T00:34:37;100332.56;;;6.00;nan
6349;BME280;3207;42.648;23.406;2023-04-06T00:37:04;100342.88;;;6.02;nan
6349;BME280;3207;42.648;23.406;2023-04-06T00:39:31;100341.97;;;6.03;nan
6349;BME280;3207;42.648;23.406;2023-04-06T00:41:58;100338.59;;;6.01;nan
6349;BME280;3207;42.648;23.406;2023-04-06T00:44:27;100324.88;;;5.99;nan
6349;BME280;3207;42.648;23.406;2023-04-06T00:46:53;100338.81;;;5.96;nan
6349;BME280;3207;42.648;23.406;2023-04-06T00:49:20;100332.50;;;6.02;nan
6349;BME280;3207;42.648;23.406;2023-04-06T00:51:47;100325.00;;;5.96;nan
6349;BME280;3207;42.648;23.406;2023-04-06T00:54:14;100330.81;;;6.01;nan
6349;BME280;3207;42.648;23.406;2023-04-06T00:56:42;100338.53;;;6.02;nan
6349;BME280;3207;42.648;23.406;2023-04-06T00:59:09;100332.72;;;5.97;nan
6349;BME280;3207;42.648;23.406;2023-04-06T01:01:38;100337.19;;;5.94;nan
6349;BME280;3207;42.648;23.406;2023-04-06T01:04:05;100335.88;;;5.85;nan
6349;BME280;3207;42.648;23.406;2023-04-06T01:06:31;100325.50;;;6.04;nan
6349;BME280;3207;42.648;23.406;2023-04-06T01:08:58;100337.19;;;5.94;nan
6349;BME280;3207;42.648;23.406;2023-04-06T01:11:25;100335.03;;;6.03;nan
6349;BME280;3207;42.648;23.406;2023-04-06T01:13:52;100332.44;;;6.03;nan
6349;BME280;3207;42.648;23.406;2023-04-06T01:16:20;100326.63;;;5.98;nan
6349;BME280;3207;42.648;23.406;2023-04-06T01:18:48;100337.00;;;5.98;nan
6349;BME280;3207;42.648;23.406;2023-04-06T01:21:15;100328.31;;;5.99;nan
6349;BME280;3207;42.648;23.406;2023-04-06T01:23:44;100335.09;;;6.02;nan
6349;BME280;3207;42.648;23.406;2023-04-06T01:26:12;100331.75;;;6.00;nan
6349;BME280;3207;42.648;23.406;2023-04-06T01:28:39;100330.69;;;6.04;nan
6349;BME280;3207;42.648;23.406;2023-04-06T01:31:08;100336.78;;;6.03;nan
6349;BME280;3207;42.648;23.406;2023-04-06T01:33:35;100308.66;;;5.94;nan
6349;BME280;3207;42.648;23.406;2023-04-06T01:36:03;100331.16;;;6.12;nan
6349;BME280;3207;42.648;23.406;2023-04-06T01:38:30;100326.22;;;6.06;nan
6349;BME280;3207;42.648;23.406;2023-04-06T01:40:59;100323.81;;;6.03;nan
6349;BME280;3207;42.648;23.406;2023-04-06T01:43:26;100318.53;;;6.04;nan
6349;BME280;3207;42.648;23.406;2023-04-06T01:45:52;100327.47;;;5.99;nan
6349;BME280;3207;42.648;23.406;2023-04-06T01:48:19;100309.63;;;5.93;nan
6349;BME280;3207;42.648;23.406;2023-04-06T01:50:46;100319.47;;;6.03;nan
6349;BME280;3207;42.648;23.406;2023-04-06T01:53:13;100308.16;;;5.85;nan
6349;BME280;3207;42.648;23.406;2023-04-06T01:55:41;100321.44;;;5.79;nan
6349;BME280;3207;42.648;23.406;2023-04-06T01:58:09;100318.53;;;5.68;nan
6349;BME280;3207;42.648;23.406;2023-04-06T02:00:36;100317.41;;;5.55;nan
6349;BME280;3207;42.648;23.406;2023-04-06T02:03:03;100308.53;;;5.42;nan
6349;BME280;3207;42.648;23.406;2023-04-06T02:05:31;100317.41;;;5.55;nan
6349;BME280;3207;42.648;23.406;2023-04-06T02:08:03;100309.88;;;5.50;nan
6349;BME280;3207;42.648;23.406;2023-04-06T02:10:30;100316.16;;;5.45;nan
6349;BME280;3207;42.648;23.406;2023-04-06T02:12:57;100301.25;;;5.31;nan
6349;BME280;3207;42.648;23.406;2023-04-06T02:15:25;100309.38;;;5.24;nan
6349;BME280;3207;42.648;23.406;2023-04-06T02:17:53;100306.81;;;5.24;nan
6349;BME280;3207;42.648;23.406;2023-04-06T02:20:19;100307.59;;;5.07;nan
6349;BME280;3207;42.648;23.406;2023-04-06T02:22:46;100306.22;;;4.98;nan
6349;BME280;3207;42.648;23.406;2023-04-06T02:25:13;100306.94;;;5.02;nan
6349;BME280;3207;42.648;23.406;2023-04-06T02:27:40;100301.56;;;5.06;nan
6349;BME280;3207;42.648;23.406;2023-04-06T02:30:08;100305.34;;;5.18;nan
6349;BME280;3207;42.648;23.406;2023-04-06T02:32:36;100299.09;;;5.03;nan
6349;BME280;3207;42.648;23.406;2023-04-06T02:35:04;100298.38;;;5.00;nan
6349;BME280;3207;42.648;23.406;2023-04-06T02:37:31;100302.34;;;5.08;nan
6349;BME280;3207;42.648;23.406;2023-04-06T02:39:58;100298.13;;;5.06;nan
6349;BME280;3207;42.648;23.406;2023-04-06T02:42:25;100299.09;;;5.03;nan
6349;BME280;3207;42.648;23.406;2023-04-06T02:44:52;100294.53;;;4.90;nan
6349;BME280;3207;42.648;23.406;2023-04-06T02:47:19;100301.63;;;5.05;nan
6349;BME280;3207;42.648;23.406;2023-04-06T02:49:47;100300.78;;;5.04;nan
6349;BME280;3207;42.648;23.406;2023-04-06T02:52:14;100291.94;;;4.90;nan
6349;BME280;3207;42.648;23.406;2023-04-06T02:54:43;100294.34;;;4.94;nan
6349;BME280;3207;42.648;23.406;2023-04-06T02:57:10;100294.88;;;4.82;nan
6349;BME280;3207;42.648;23.406;2023-04-06T02:59:36;100291.50;;;4.80;nan
6349;BME280;3207;42.648;23.406;2023-04-06T03:02:03;100296.50;;;4.85;nan
6349;BME280;3207;42.648;23.406;2023-04-06T03:04:30;100293.31;;;4.78;nan
6349;BME280;3207;42.648;23.406;2023-04-06T03:06:58;100293.59;;;4.72;nan
6349;BME280;3207;42.648;23.406;2023-04-06T03:09:26;100293.41;;;4.56;nan
6349;BME280;3207;42.648;23.406;2023-04-06T03:11:52;100296.63;;;4.43;nan
6349;BME280;3207;42.648;23.406;2023-04-06T03:14:20;100299.34;;;4.39;nan
6349;BME280;3207;42.648;23.406;2023-04-06T03:16:48;100297.41;;;4.45;nan
6349;BME280;3207;42.648;23.406;2023-04-06T03:19:15;100298.66;;;4.34;nan
6349;BME280;3207;42.648;23.406;2023-04-06T03:21:42;100301.19;;;4.36;nan
6349;BME280;3207;42.648;23.406;2023-04-06T03:24:10;100308.50;;;4.26;nan
6349;BME280;3207;42.648;23.406;2023-04-06T03:26:38;100313.00;;;4.23;nan
6349;BME280;3207;42.648;23.406;2023-04-06T03:29:05;100312.59;;;4.32;nan
6349;BME280;3207;42.648;23.406;2023-04-06T03:31:32;100310.03;;;4.32;nan
6349;BME280;3207;42.648;23.406;2023-04-06T03:33:59;100311.38;;;4.20;nan
6349;BME280;3207;42.648;23.406;2023-04-06T03:36:25;100313.72;;;4.04;nan
6349;BME280;3207;42.648;23.406;2023-04-06T03:38:52;100321.75;;;3.98;nan
6349;BME280;3207;42.648;23.406;2023-04-06T03:41:21;100321.97;;;3.92;nan
6349;BME280;3207;42.648;23.406;2023-04-06T03:43:48;100310.03;;;3.90;nan
6349;BME280;3207;42.648;23.406;2023-04-06T03:46:15;100318.97;;;4.03;nan
6349;BME280;3207;42.648;23.406;2023-04-06T03:48:42;100321.19;;;3.92;nan
6349;BME280;3207;42.648;23.406;2023-04-06T03:51:09;100320.66;;;4.04;nan
6349;BME280;3207;42.648;23.406;2023-04-06T03:53:36;100322.22;;;4.08;nan
6349;BME280;3207;42.648;23.406;2023-04-06T03:56:04;100318.84;;;4.06;nan
6349;BME280;3207;42.648;23.406;2023-04-06T03:58:32;100321.44;;;4.06;nan
6349;BME280;3207;42.648;23.406;2023-04-06T04:00:59;100320.53;;;4.07;nan
6349;BME280;3207;42.648;23.406;2023-04-06T04:03:26;100315.16;;;3.91;nan
6349;BME280;3207;42.648;23.406;2023-04-06T04:05:53;100325.25;;;3.97;nan
6349;BME280;3207;42.648;23.406;2023-04-06T04:08:20;100333.56;;;4.04;nan
6349;BME280;3207;42.648;23.406;2023-04-06T04:10:47;100329.88;;;4.11;nan
6349;BME280;3207;42.648;23.406;2023-04-06T04:13:14;100335.94;;;4.10;nan
6349;BME280;3207;42.648;23.406;2023-04-06T04:15:42;100331.25;;;3.98;nan
6349;BME280;3207;42.648;23.406;2023-04-06T04:18:09;100335.66;;;3.96;nan
6349;BME280;3207;42.648;23.406;2023-04-06T04:20:36;100334.22;;;3.89;nan
6349;BME280;3207;42.648;23.406;2023-04-06T04:23:03;100339.09;;;3.75;nan
6349;BME280;3207;42.648;23.406;2023-04-06T04:25:30;100341.97;;;3.67;nan
6349;BME280;3207;42.648;23.406;2023-04-06T04:27:57;100346.06;;;3.73;nan
6349;BME280;3207;42.648;23.406;2023-04-06T04:30:24;100341.78;;;3.72;nan
6349;BME280;3207;42.648;23.406;2023-04-06T04:32:52;100344.50;;;3.68;nan
6349;BME280;3207;42.648;23.406;2023-04-06T04:35:19;100347.16;;;3.67;nan
6349;BME280;3207;42.648;23.406;2023-04-06T04:37:46;100344.56;;;3.67;nan
6349;BME280;3207;42.648;23.406;2023-04-06T04:40:13;100345.28;;;3.71;nan
6349;BME280;3207;42.648;23.406;2023-04-06T04:42:40;100343.28;;;3.55;nan
6349;BME280;3207;42.648;23.406;2023-04-06T04:45:07;100340.53;;;3.60;nan
6349;BME280;3207;42.648;23.406;2023-04-06T04:47:34;100344.06;;;3.57;nan
6349;BME280;3207;42.648;23.406;2023-04-06T04:50:03;100348.78;;;3.70;nan
6349;BME280;3207;42.648;23.406;2023-04-06T04:52:30;100344.97;;;3.78;nan
6349;BME280;3207;42.648;23.406;2023-04-06T04:54:57;100349.63;;;3.92;nan
6349;BME280;3207;42.648;23.406;2023-04-06T04:57:24;100342.81;;;3.89;nan
6349;BME280;3207;42.648;23.406;2023-04-06T04:59:51;100349.31;;;3.78;nan
6349;BME280;3207;42.648;23.406;2023-04-06T05:02:18;100353.69;;;3.76;nan
6349;BME280;3207;42.648;23.406;2023-04-06T05:04:44;100354.97;;;3.87;nan
6349;BME280;3207;42.648;23.406;2023-04-06T05:07:13;100351.28;;;3.93;nan
6349;BME280;3207;42.648;23.406;2023-04-06T05:09:41;100355.38;;;3.98;nan
6349;BME280;3207;42.648;23.406;2023-04-06T05:12:08;100352.19;;;3.92;nan
6349;BME280;3207;42.648;23.406;2023-04-06T05:14:35;100354.00;;;3.90;nan
6349;BME280;3207;42.648;23.406;2023-04-06T05:17:02;100348.47;;;3.99;nan
6349;BME280;3207;42.648;23.406;2023-04-06T05:19:29;100348.44;;;4.21;nan
6349;BME280;3207;42.648;23.406;2023-04-06T05:21:56;100350.56;;;4.31;nan
6349;BME280;3207;42.648;23.406;2023-04-06T05:24:25;100343.22;;;4.43;nan
6349;BME280;3207;42.648;23.406;2023-04-06T05:26:52;100345.19;;;4.56;nan
6349;BME280;3207;42.648;23.406;2023-04-06T05:29:19;100338.25;;;4.77;nan
6349;BME280;3207;42.648;23.406;2023-04-06T05:31:46;100341.22;;;4.88;nan
6349;BME280;3207;42.648;23.406;2023-04-06T05:34:13;100285.91;;;4.70;nan
6349;BME280;3207;42.648;23.406;2023-04-06T05:36:40;100346.72;;;5.20;nan
6349;BME280;3207;42.648;23.406;2023-04-06T05:39:07;100351.22;;;5.35;nan
6349;BME280;3207;42.648;23.406;2023-04-06T05:41:36;100347.22;;;5.46;nan
6349;BME280;3207;42.648;23.406;2023-04-06T05:44:03;100358.34;;;5.67;nan
6349;BME280;3207;42.648;23.406;2023-04-06T05:46:30;100348.34;;;5.96;nan
6349;BME280;3207;42.648;23.406;2023-04-06T05:48:57;100336.41;;;6.10;nan
6349;BME280;3207;42.648;23.406;2023-04-06T05:51:23;100348.06;;;6.36;nan
6349;BME280;3207;42.648;23.406;2023-04-06T05:53:52;100352.84;;;6.45;nan
6349;BME280;3207;42.648;23.406;2023-04-06T05:56:19;100348.97;;;6.70;nan
6349;BME280;3207;42.648;23.406;2023-04-06T05:58:47;100349.13;;;6.84;nan
6349;BME280;3207;42.648;23.406;2023-04-06T06:01:14;100353.97;;;7.07;nan
6349;BME280;3207;42.648;23.406;2023-04-06T06:03:41;100348.03;;;7.37;nan
6349;BME280;3207;42.648;23.406;2023-04-06T06:06:08;100348.38;;;7.93;nan
6349;BME280;3207;42.648;23.406;2023-04-06T06:08:34;100360.44;;;9.27;nan
6349;BME280;3207;42.648;23.406;2023-04-06T06:11:02;100362.44;;;10.70;nan
6349;BME280;3207;42.648;23.406;2023-04-06T06:13:28;100364.28;;;12.17;nan
6349;BME280;3207;42.648;23.406;2023-04-06T06:15:57;100373.56;;;13.47;nan
6349;BME280;3207;42.648;23.406;2023-04-06T06:18:24;100355.97;;;14.45;nan
6349;BME280;3207;42.648;23.406;2023-04-06T06:20:51;100371.69;;;15.68;nan
6349;BME280;3207;42.648;23.406;2023-04-06T06:23:18;100372.16;;;16.89;nan
6349;BME280;3207;42.648;23.406;2023-04-06T06:25:44;100372.84;;;17.65;nan
6349;BME280;3207;42.648;23.406;2023-04-06T06:28:11;100379.63;;;18.48;nan
6349;BME280;3207;42.648;23.406;2023-04-06T06:30:38;100369.09;;;19.59;nan
6349;BME280;3207;42.648;23.406;2023-04-06T06:33:06;100374.38;;;20.66;nan
6349;BME280;3207;42.648;23.406;2023-04-06T06:35:33;100374.72;;;21.43;nan
6349;BME280;3207;42.648;23.406;2023-04-06T06:38:00;100384.22;;;22.30;nan
6349;BME280;3207;42.648;23.406;2023-04-06T06:40:27;100383.69;;;23.10;nan
6349;BME280;3207;42.648;23.406;2023-04-06T06:42:54;100365.78;;;23.62;nan
6349;BME280;3207;42.648;23.406;2023-04-06T06:45:21;100372.63;;;24.07;nan
6349;BME280;3207;42.648;23.406;2023-04-06T06:47:48;100373.53;;;24.15;nan
6349;BME280;3207;42.648;23.406;2023-04-06T06:50:16;100377.63;;;23.96;nan
6349;BME280;3207;42.648;23.406;2023-04-06T06:52:43;100366.50;;;24.77;nan
6349;BME280;3207;42.648;23.406;2023-04-06T06:55:10;100371.31;;;25.23;nan
6349;BME280;3207;42.648;23.406;2023-04-06T06:57:37;100366.84;;;25.71;nan
6349;BME280;3207;42.648;23.406;2023-04-06T07:00:05;100372.78;;;25.67;nan
6349;BME280;3207;42.648;23.406;2023-04-06T07:02:34;100372.66;;;25.88;nan
6349;BME280;3207;42.648;23.406;2023-04-06T07:05:02;100373.38;;;26.30;nan
6349;BME280;3207;42.648;23.406;2023-04-06T07:07:31;100370.09;;;26.41;nan
6349;BME280;3207;42.648;23.406;2023-04-06T07:09:58;100372.28;;;26.04;nan
6349;BME280;3207;42.648;23.406;2023-04-06T07:12:25;100361.44;;;26.52;nan
6349;BME280;3207;42.648;23.406;2023-04-06T07:14:52;100375.44;;;27.07;nan
6349;BME280;3207;42.648;23.406;2023-04-06T07:17:19;100369.09;;;27.52;nan
6349;BME280;3207;42.648;23.406;2023-04-06T07:19:46;100372.91;;;27.25;nan
6349;BME280;3207;42.648;23.406;2023-04-06T07:22:13;100373.03;;;27.56;nan
6349;BME280;3207;42.648;23.406;2023-04-06T07:24:41;100370.34;;;27.63;nan
6349;BME280;3207;42.648;23.406;2023-04-06T07:27:08;100378.53;;;28.44;nan
6349;BME280;3207;42.648;23.406;2023-04-06T07:29:35;100367.16;;;28.67;nan
6349;BME280;3207;42.648;23.406;2023-04-06T07:32:02;100371.88;;;28.71;nan
6349;BME280;3207;42.648;23.406;2023-04-06T07:34:29;100370.84;;;28.23;nan
6349;BME280;3207;42.648;23.406;2023-04-06T07:36:56;100369.75;;;29.41;nan
6349;BME280;3207;42.648;23.406;2023-04-06T07:39:23;100380.69;;;30.25;nan
6349;BME280;3207;42.648;23.406;2023-04-06T07:41:53;100374.13;;;30.44;nan
6349;BME280;3207;42.648;23.406;2023-04-06T07:44:19;100365.50;;;30.88;nan
6349;BME280;3207;42.648;23.406;2023-04-06T07:46:46;100362.06;;;30.46;nan
6349;BME280;3207;42.648;23.406;2023-04-06T07:49:13;100363.19;;;29.85;nan
6349;BME280;3207;42.648;23.406;2023-04-06T07:51:40;100356.91;;;29.73;nan
6349;BME280;3207;42.648;23.406;2023-04-06T07:54:07;100350.22;;;29.09;nan
6349;BME280;3207;42.648;23.406;2023-04-06T07:56:34;100367.53;;;29.87;nan
6349;BME280;3207;42.648;23.406;2023-04-06T07:59:02;100363.91;;;29.93;nan
6349;BME280;3207;42.648;23.406;2023-04-06T08:01:29;100360.06;;;29.70;nan
6349;BME280;3207;42.648;23.406;2023-04-06T08:03:56;100356.00;;;29.79;nan
6349;BME280;3207;42.648;23.406;2023-04-06T08:06:23;100347.44;;;29.16;nan
6349;BME280;3207;42.648;23.406;2023-04-06T08:08:50;100351.47;;;29.92;nan
6349;BME280;3207;42.648;23.406;2023-04-06T08:11:17;100353.56;;;29.90;nan
6349;BME280;3207;42.648;23.406;2023-04-06T08:13:44;100355.47;;;30.42;nan
6349;BME280;3207;42.648;23.406;2023-04-06T08:16:12;100356.34;;;31.01;nan
6349;BME280;3207;42.648;23.406;2023-04-06T08:18:39;100342.69;;;30.38;nan
6349;BME280;3207;42.648;23.406;2023-04-06T08:21:06;100353.56;;;30.31;nan
6349;BME280;3207;42.648;23.406;2023-04-06T08:23:33;100356.13;;;30.68;nan
6349;BME280;3207;42.648;23.406;2023-04-06T08:26:00;100345.38;;;31.31;nan
6349;BME280;3207;42.648;23.406;2023-04-06T08:28:27;100341.75;;;32.11;nan
6349;BME280;3207;42.648;23.406;2023-04-06T08:30:54;100344.56;;;33.21;nan
6349;BME280;3207;42.648;23.406;2023-04-06T08:33:22;100348.56;;;33.79;nan
6349;BME280;3207;42.648;23.406;2023-04-06T08:35:49;100318.72;;;34.11;nan
6349;BME280;3207;42.648;23.406;2023-04-06T08:38:16;100343.75;;;34.50;nan
6349;BME280;3207;42.648;23.406;2023-04-06T08:40:43;100332.91;;;33.91;nan
6349;BME280;3207;42.648;23.406;2023-04-06T08:43:14;100331.38;;;34.27;nan
6349;BME280;3207;42.648;23.406;2023-04-06T08:45:41;100337.56;;;33.69;nan
6349;BME280;3207;42.648;23.406;2023-04-06T08:48:09;100329.16;;;32.83;nan
6349;BME280;3207;42.648;23.406;2023-04-06T08:50:38;100321.97;;;32.72;nan
6349;BME280;3207;42.648;23.406;2023-04-06T08:53:05;100324.75;;;32.60;nan
6349;BME280;3207;42.648;23.406;2023-04-06T08:55:33;100320.66;;;32.41;nan
6349;BME280;3207;42.648;23.406;2023-04-06T08:58:00;100316.88;;;32.42;nan
6349;BME280;3207;42.648;23.406;2023-04-06T09:00:28;100315.22;;;31.51;nan
6349;BME280;3207;42.648;23.406;2023-04-06T09:02:55;100317.22;;;31.15;nan
6349;BME280;3207;42.648;23.406;2023-04-06T09:05:25;100314.47;;;31.95;nan
6349;BME280;3207;42.648;23.406;2023-04-06T09:07:54;100310.00;;;32.51;nan
6349;BME280;3207;42.648;23.406;2023-04-06T09:10:21;100300.78;;;33.29;nan
6349;BME280;3207;42.648;23.406;2023-04-06T09:12:49;100306.56;;;32.39;nan
6349;BME280;3207;42.648;23.406;2023-04-06T09:15:19;100304.63;;;33.33;nan
6349;BME280;3207;42.648;23.406;2023-04-06T09:17:47;100313.75;;;34.35;nan
6349;BME280;3207;42.648;23.406;2023-04-06T09:20:14;100307.47;;;35.18;nan
6349;BME280;3207;42.648;23.406;2023-04-06T09:22:42;100288.91;;;35.98;nan
6349;BME280;3207;42.648;23.406;2023-04-06T09:25:18;100305.78;;;35.95;nan
6349;BME280;3207;42.648;23.406;2023-04-06T09:27:46;100304.41;;;35.77;nan
6349;BME280;3207;42.648;23.406;2023-04-06T09:30:14;100291.81;;;35.61;nan
6349;BME280;3207;42.648;23.406;2023-04-06T09:32:46;100288.03;;;35.67;nan
6349;BME280;3207;42.648;23.406;2023-04-06T09:35:14;100278.25;;;34.83;nan
6349;BME280;3207;42.648;23.406;2023-04-06T09:37:41;100281.56;;;34.96;nan
6349;BME280;3207;42.648;23.406;2023-04-06T09:40:11;100274.50;;;33.30;nan
6349;BME280;3207;42.648;23.406;2023-04-06T09:42:41;100264.84;;;32.57;nan
6349;BME280;3207;42.648;23.406;2023-04-06T09:45:09;100277.78;;;33.32;nan
6349;BME280;3207;42.648;23.406;2023-04-06T09:47:36;100274.69;;;34.78;nan
6349;BME280;3207;42.648;23.406;2023-04-06T09:50:07;100265.56;;;34.52;nan
6349;BME280;3207;42.648;23.406;2023-04-06T09:52:40;100275.34;;;35.10;nan
6349;BME280;3207;42.648;23.406;2023-04-06T09:55:09;100260.66;;;34.96;nan
6349;BME280;3207;42.648;23.406;2023-04-06T09:57:44;100270.38;;;35.95;nan
6349;BME280;3207;42.648;23.406;2023-04-06T10:00:17;100268.78;;;35.79;nan
6349;BME280;3207;42.648;23.406;2023-04-06T10:02:51;100268.97;;;35.52;nan
6349;BME280;3207;42.648;23.406;2023-04-06T10:05:25;100257.31;;;35.82;nan
6349;BME280;3207;42.648;23.406;2023-04-06T10:07:57;100257.25;;;36.73;nan
6349;BME280;3207;42.648;23.406;2023-04-06T10:10:28;100253.41;;;37.33;nan
6349;BME280;3207;42.648;23.406;2023-04-06T10:12:56;100240.94;;;35.51;nan
6349;BME280;3207;42.648;23.406;2023-04-06T10:15:24;100241.66;;;34.17;nan
6349;BME280;3207;42.648;23.406;2023-04-06T10:17:51;100239.44;;;34.46;nan
6349;BME280;3207;42.648;23.406;2023-04-06T10:20:24;100236.63;;;35.66;nan
6349;BME280;3207;42.648;23.406;2023-04-06T10:22:59;100238.28;;;36.22;nan
6349;BME280;3207;42.648;23.406;2023-04-06T10:25:30;100237.31;;;36.78;nan
6349;BME280;3207;42.648;23.406;2023-04-06T10:28:02;100245.03;;;36.35;nan
6349;BME280;3207;42.648;23.406;2023-04-06T10:30:32;100238.97;;;37.33;nan
6349;BME280;3207;42.648;23.406;2023-04-06T10:32:59;100236.47;;;37.81;nan
6349;BME280;3207;42.648;23.406;2023-04-06T10:35:36;100226.06;;;37.83;nan
6349;BME280;3207;42.648;23.406;2023-04-06T10:38:04;100222.19;;;37.06;nan
6349;BME280;3207;42.648;23.406;2023-04-06T10:40:36;100222.75;;;35.67;nan
6349;BME280;3207;42.648;23.406;2023-04-06T10:43:09;100218.94;;;35.58;nan
6349;BME280;3207;42.648;23.406;2023-04-06T10:45:37;100208.00;;;36.14;nan
6349;BME280;3207;42.648;23.406;2023-04-06T10:48:13;100206.22;;;37.33;nan
6349;BME280;3207;42.648;23.406;2023-04-06T10:50:41;100206.41;;;38.86;nan
6349;BME280;3207;42.648;23.406;2023-04-06T10:53:08;100200.00;;;39.14;nan
6349;BME280;3207;42.648;23.406;2023-04-06T10:55:38;100186.41;;;39.09;nan
6349;BME280;3207;42.648;23.406;2023-04-06T10:58:06;100183.09;;;38.70;nan
6349;BME280;3207;42.648;23.406;2023-04-06T11:00:34;100180.91;;;37.27;nan
6349;BME280;3207;42.648;23.406;2023-04-06T11:03:01;100177.50;;;37.01;nan
6349;BME280;3207;42.648;23.406;2023-04-06T11:05:28;100177.69;;;37.10;nan
6349;BME280;3207;42.648;23.406;2023-04-06T11:07:56;100171.88;;;36.78;nan
6349;BME280;3207;42.648;23.406;2023-04-06T11:10:23;100182.31;;;37.59;nan
6349;BME280;3207;42.648;23.406;2023-04-06T11:12:55;100174.38;;;37.91;nan
6349;BME280;3207;42.648;23.406;2023-04-06T11:15:22;100175.66;;;39.32;nan
6349;BME280;3207;42.648;23.406;2023-04-06T11:17:49;100166.56;;;39.36;nan
6349;BME280;3207;42.648;23.406;2023-04-06T11:20:16;100168.38;;;38.18;nan
6349;BME280;3207;42.648;23.406;2023-04-06T11:22:49;100168.16;;;37.86;nan
6349;BME280;3207;42.648;23.406;2023-04-06T11:25:17;100154.19;;;35.75;nan
6349;BME280;3207;42.648;23.406;2023-04-06T11:27:45;100146.81;;;35.96;nan
6349;BME280;3207;42.648;23.406;2023-04-06T11:30:13;100146.78;;;36.06;nan
6349;BME280;3207;42.648;23.406;2023-04-06T11:32:41;100135.91;;;35.20;nan
6349;BME280;3207;42.648;23.406;2023-04-06T11:35:11;100091.91;;;33.78;nan
6349;BME280;3207;42.648;23.406;2023-04-06T11:37:39;100132.91;;;33.87;nan
6349;BME280;3207;42.648;23.406;2023-04-06T11:40:08;100126.09;;;33.20;nan
6349;BME280;3207;42.648;23.406;2023-04-06T11:42:35;100125.13;;;33.31;nan
6349;BME280;3207;42.648;23.406;2023-04-06T11:45:02;100128.09;;;33.03;nan
6349;BME280;3207;42.648;23.406;2023-04-06T11:47:33;100116.13;;;31.56;nan
6349;BME280;3207;42.648;23.406;2023-04-06T11:50:05;100109.19;;;29.95;nan
6349;BME280;3207;42.648;23.406;2023-04-06T11:52:34;100111.38;;;28.80;nan
6349;BME280;3207;42.648;23.406;2023-04-06T11:55:11;100073.59;;;27.03;nan
6349;BME280;3207;42.648;23.406;2023-04-06T11:57:38;100081.25;;;25.17;nan
6349;BME280;3207;42.648;23.406;2023-04-06T12:00:08;100087.50;;;23.95;nan
6349;BME280;3207;42.648;23.406;2023-04-06T12:02:36;100080.72;;;23.36;nan
6349;BME280;3207;42.648;23.406;2023-04-06T12:05:05;100079.63;;;23.10;nan
6349;BME280;3207;42.648;23.406;2023-04-06T12:07:32;100073.88;;;22.34;nan
6349;BME280;3207;42.648;23.406;2023-04-06T12:10:01;100047.84;;;21.77;nan
6349;BME280;3207;42.648;23.406;2023-04-06T12:12:28;100052.63;;;21.67;nan
6349;BME280;3207;42.648;23.406;2023-04-06T12:14:55;100053.59;;;21.51;nan
6349;BME280;3207;42.648;23.406;2023-04-06T12:17:22;100055.06;;;20.94;nan
6349;BME280;3207;42.648;23.406;2023-04-06T12:19:51;100047.72;;;20.73;nan
6349;BME280;3207;42.648;23.406;2023-04-06T12:22:18;100047.34;;;20.53;nan
6349;BME280;3207;42.648;23.406;2023-04-06T12:24:45;100041.88;;;20.46;nan
6349;BME280;3207;42.648;23.406;2023-04-06T12:27:12;100038.63;;;20.28;nan
6349;BME280;3207;42.648;23.406;2023-04-06T12:29:39;100043.94;;;20.28;nan
6349;BME280;3207;42.648;23.406;2023-04-06T12:32:06;100025.13;;;20.07;nan
6349;BME280;3207;42.648;23.406;2023-04-06T12:34:33;100038.66;;;19.73;nan
6349;BME280;3207;42.648;23.406;2023-04-06T12:37:02;100029.88;;;19.72;nan
6349;BME280;3207;42.648;23.406;2023-04-06T12:39:29;100025.63;;;19.55;nan
6349;BME280;3207;42.648;23.406;2023-04-06T12:41:56;100030.75;;;19.32;nan
6349;BME280;3207;42.648;23.406;2023-04-06T12:44:23;100025.13;;;19.27;nan
6349;BME280;3207;42.648;23.406;2023-04-06T12:46:50;100025.63;;;18.98;nan
6349;BME280;3207;42.648;23.406;2023-04-06T12:49:17;100023.78;;;18.99;nan
6349;BME280;3207;42.648;23.406;2023-04-06T12:51:45;100012.53;;;18.89;nan
6349;BME280;3207;42.648;23.406;2023-04-06T12:54:13;100011.53;;;18.98;nan
6349;BME280;3207;42.648;23.406;2023-04-06T12:56:40;100004.44;;;19.15;nan
6349;BME280;3207;42.648;23.406;2023-04-06T12:59:07;100004.75;;;19.04;nan
6349;BME280;3207;42.648;23.406;2023-04-06T13:01:34;100001.78;;;19.15;nan
6349;BME280;3207;42.648;23.406;2023-04-06T13:04:01;100004.38;;;19.39;nan
6349;BME280;3207;42.648;23.406;2023-04-06T13:06:27;100002.06;;;19.52;nan
6349;BME280;3207;42.648;23.406;2023-04-06T13:08:55;100006.06;;;19.56;nan
6349;BME280;3207;42.648;23.406;2023-04-06T13:11:24;99996.44;;;19.31;nan
6349;BME280;3207;42.648;23.406;2023-04-06T13:13:51;99975.13;;;19.16;nan
6349;BME280;3207;42.648;23.406;2023-04-06T13:16:18;99980.94;;;18.95;nan
6349;BME280;3207;42.648;23.406;2023-04-06T13:18:45;99986.72;;;18.83;nan
6349;BME280;3207;42.648;23.406;2023-04-06T13:21:14;99986.03;;;18.14;nan
6349;BME280;3207;42.648;23.406;2023-04-06T13:23:42;99987.66;;;17.99;nan
6349;BME280;3207;42.648;23.406;2023-04-06T13:26:09;99985.00;;;17.99;nan
6349;BME280;3207;42.648;23.406;2023-04-06T13:28:37;99983.63;;;18.29;nan